<?xml version="1.0" encoding="UTF-8" standalone="no" ?>
<gpx xmlns="http://www.topografix.com/GPX/1/1" xmlns:xsi="http://www.w3.org/2001/XMLSchema-instance" xsi:schemaLocation="http://www.topografix.com/GPX/1/1 http://www.topografix.com/GPX/1/1/gpx.xsd" version="1.1" creator="VisuGPX - https://www.visugpx.com">
  <metadata>
    <name>Course à pied dans l'après-midi</name>
  </metadata>
  <trk>
    <name><![CDATA[Course à pied dans l'après-midi_1]]></name>
    <trkseg>
      <trkpt lat="48.74844" lon="7.19132">
        <ele>333.3</ele>
        <time>2023-09-16T12:15:34Z</time>
      </trkpt>
      <trkpt lat="48.74832" lon="7.19154">
        <ele>333.6</ele>
        <time>2023-09-16T12:15:39Z</time>
      </trkpt>
      <trkpt lat="48.74819" lon="7.19176">
        <ele>334.1</ele>
        <time>2023-09-16T12:15:44Z</time>
      </trkpt>
      <trkpt lat="48.74805" lon="7.192">
        <ele>334.9</ele>
        <time>2023-09-16T12:15:50Z</time>
      </trkpt>
      <trkpt lat="48.7479" lon="7.1922">
        <ele>335.8</ele>
        <time>2023-09-16T12:15:56Z</time>
      </trkpt>
      <trkpt lat="48.74772" lon="7.19233">
        <ele>336.5</ele>
        <time>2023-09-16T12:16:02Z</time>
      </trkpt>
      <trkpt lat="48.74753" lon="7.1924">
        <ele>337.1</ele>
        <time>2023-09-16T12:16:08Z</time>
      </trkpt>
      <trkpt lat="48.74737" lon="7.1925">
        <ele>337.5</ele>
        <time>2023-09-16T12:16:14Z</time>
      </trkpt>
      <trkpt lat="48.74722" lon="7.19257">
        <ele>337.7</ele>
        <time>2023-09-16T12:16:21Z</time>
      </trkpt>
      <trkpt lat="48.74722" lon="7.19251">
        <ele>337.8</ele>
        <time>2023-09-16T12:16:45Z</time>
      </trkpt>
      <trkpt lat="48.74725" lon="7.19245">
        <ele>337.7</ele>
        <time>2023-09-16T12:16:47Z</time>
      </trkpt>
      <trkpt lat="48.74744" lon="7.19235">
        <ele>337.4</ele>
        <time>2023-09-16T12:16:52Z</time>
      </trkpt>
      <trkpt lat="48.74765" lon="7.19229">
        <ele>336.8</ele>
        <time>2023-09-16T12:16:57Z</time>
      </trkpt>
      <trkpt lat="48.74784" lon="7.1922">
        <ele>335.9</ele>
        <time>2023-09-16T12:17:02Z</time>
      </trkpt>
      <trkpt lat="48.74802" lon="7.19203">
        <ele>335.1</ele>
        <time>2023-09-16T12:17:07Z</time>
      </trkpt>
      <trkpt lat="48.74816" lon="7.19182">
        <ele>334.3</ele>
        <time>2023-09-16T12:17:12Z</time>
      </trkpt>
      <trkpt lat="48.7483" lon="7.19161">
        <ele>333.6</ele>
        <time>2023-09-16T12:17:17Z</time>
      </trkpt>
      <trkpt lat="48.74842" lon="7.19137">
        <ele>333.1</ele>
        <time>2023-09-16T12:17:22Z</time>
      </trkpt>
      <trkpt lat="48.74846" lon="7.19131">
        <ele>333.1</ele>
        <time>2023-09-16T12:17:24Z</time>
      </trkpt>
      <trkpt lat="48.74849" lon="7.19121">
        <ele>333.3</ele>
        <time>2023-09-16T12:19:15Z</time>
      </trkpt>
      <trkpt lat="48.74868" lon="7.19117">
        <ele>332.3</ele>
        <time>2023-09-16T12:19:29Z</time>
      </trkpt>
      <trkpt lat="48.74886" lon="7.19117">
        <ele>331.4</ele>
        <time>2023-09-16T12:19:34Z</time>
      </trkpt>
      <trkpt lat="48.74903" lon="7.19111">
        <ele>330.5</ele>
        <time>2023-09-16T12:19:38Z</time>
      </trkpt>
      <trkpt lat="48.74921" lon="7.19095">
        <ele>330</ele>
        <time>2023-09-16T12:19:43Z</time>
      </trkpt>
      <trkpt lat="48.74935" lon="7.19073">
        <ele>329.4</ele>
        <time>2023-09-16T12:19:47Z</time>
      </trkpt>
      <trkpt lat="48.7495" lon="7.19056">
        <ele>328.9</ele>
        <time>2023-09-16T12:19:51Z</time>
      </trkpt>
      <trkpt lat="48.74963" lon="7.19031">
        <ele>328.8</ele>
        <time>2023-09-16T12:19:56Z</time>
      </trkpt>
      <trkpt lat="48.74975" lon="7.19007">
        <ele>328.8</ele>
        <time>2023-09-16T12:20:01Z</time>
      </trkpt>
      <trkpt lat="48.74977" lon="7.18981">
        <ele>329</ele>
        <time>2023-09-16T12:20:06Z</time>
      </trkpt>
      <trkpt lat="48.74976" lon="7.18954">
        <ele>329.2</ele>
        <time>2023-09-16T12:20:11Z</time>
      </trkpt>
      <trkpt lat="48.74977" lon="7.18926">
        <ele>329.1</ele>
        <time>2023-09-16T12:20:16Z</time>
      </trkpt>
      <trkpt lat="48.74977" lon="7.18898">
        <ele>328.6</ele>
        <time>2023-09-16T12:20:21Z</time>
      </trkpt>
      <trkpt lat="48.74982" lon="7.18867">
        <ele>327.8</ele>
        <time>2023-09-16T12:20:27Z</time>
      </trkpt>
      <trkpt lat="48.74986" lon="7.18835">
        <ele>327.1</ele>
        <time>2023-09-16T12:20:32Z</time>
      </trkpt>
      <trkpt lat="48.7499" lon="7.18804">
        <ele>326.5</ele>
        <time>2023-09-16T12:20:37Z</time>
      </trkpt>
      <trkpt lat="48.74998" lon="7.18778">
        <ele>325.7</ele>
        <time>2023-09-16T12:20:42Z</time>
      </trkpt>
      <trkpt lat="48.74997" lon="7.18748">
        <ele>325</ele>
        <time>2023-09-16T12:20:48Z</time>
      </trkpt>
      <trkpt lat="48.74991" lon="7.18722">
        <ele>325.3</ele>
        <time>2023-09-16T12:20:53Z</time>
      </trkpt>
      <trkpt lat="48.74983" lon="7.18695">
        <ele>325.4</ele>
        <time>2023-09-16T12:20:58Z</time>
      </trkpt>
      <trkpt lat="48.74976" lon="7.18669">
        <ele>325.7</ele>
        <time>2023-09-16T12:21:03Z</time>
      </trkpt>
      <trkpt lat="48.74976" lon="7.18664">
        <ele>325.5</ele>
        <time>2023-09-16T12:21:05Z</time>
      </trkpt>
      <trkpt lat="48.74976" lon="7.18664">
        <ele>325.5</ele>
        <time>2023-09-16T12:21:07Z</time>
      </trkpt>
      <trkpt lat="48.74976" lon="7.1866">
        <ele>325.4</ele>
        <time>2023-09-16T12:21:16Z</time>
      </trkpt>
      <trkpt lat="48.74965" lon="7.18638">
        <ele>326.1</ele>
        <time>2023-09-16T12:21:23Z</time>
      </trkpt>
      <trkpt lat="48.74957" lon="7.18618">
        <ele>326.4</ele>
        <time>2023-09-16T12:21:27Z</time>
      </trkpt>
      <trkpt lat="48.74941" lon="7.18599">
        <ele>328.8</ele>
        <time>2023-09-16T12:21:34Z</time>
      </trkpt>
      <trkpt lat="48.74925" lon="7.1858">
        <ele>330.6</ele>
        <time>2023-09-16T12:21:40Z</time>
      </trkpt>
      <trkpt lat="48.74913" lon="7.18558">
        <ele>331.4</ele>
        <time>2023-09-16T12:21:47Z</time>
      </trkpt>
      <trkpt lat="48.74907" lon="7.18531">
        <ele>330.8</ele>
        <time>2023-09-16T12:21:53Z</time>
      </trkpt>
      <trkpt lat="48.74902" lon="7.18504">
        <ele>329.6</ele>
        <time>2023-09-16T12:22:00Z</time>
      </trkpt>
      <trkpt lat="48.74901" lon="7.18491">
        <ele>329</ele>
        <time>2023-09-16T12:22:05Z</time>
      </trkpt>
      <trkpt lat="48.74889" lon="7.18469">
        <ele>329.3</ele>
        <time>2023-09-16T12:22:14Z</time>
      </trkpt>
      <trkpt lat="48.74877" lon="7.18447">
        <ele>329.7</ele>
        <time>2023-09-16T12:22:22Z</time>
      </trkpt>
      <trkpt lat="48.74866" lon="7.18425">
        <ele>329.8</ele>
        <time>2023-09-16T12:22:30Z</time>
      </trkpt>
      <trkpt lat="48.74868" lon="7.18417">
        <ele>329.5</ele>
        <time>2023-09-16T12:22:32Z</time>
      </trkpt>
      <trkpt lat="48.74869" lon="7.18388">
        <ele>328.5</ele>
        <time>2023-09-16T12:22:39Z</time>
      </trkpt>
      <trkpt lat="48.74867" lon="7.18361">
        <ele>327.8</ele>
        <time>2023-09-16T12:22:45Z</time>
      </trkpt>
      <trkpt lat="48.74853" lon="7.18341">
        <ele>327.6</ele>
        <time>2023-09-16T12:22:52Z</time>
      </trkpt>
      <trkpt lat="48.74837" lon="7.1833">
        <ele>327.4</ele>
        <time>2023-09-16T12:22:58Z</time>
      </trkpt>
      <trkpt lat="48.74822" lon="7.18308">
        <ele>326.6</ele>
        <time>2023-09-16T12:23:05Z</time>
      </trkpt>
      <trkpt lat="48.74823" lon="7.18278">
        <ele>325.7</ele>
        <time>2023-09-16T12:23:11Z</time>
      </trkpt>
      <trkpt lat="48.74826" lon="7.18252">
        <ele>324.5</ele>
        <time>2023-09-16T12:23:20Z</time>
      </trkpt>
      <trkpt lat="48.74808" lon="7.18253">
        <ele>323.6</ele>
        <time>2023-09-16T12:23:31Z</time>
      </trkpt>
      <trkpt lat="48.7479" lon="7.18246">
        <ele>321.6</ele>
        <time>2023-09-16T12:23:37Z</time>
      </trkpt>
      <trkpt lat="48.74771" lon="7.18245">
        <ele>321.2</ele>
        <time>2023-09-16T12:23:43Z</time>
      </trkpt>
      <trkpt lat="48.74753" lon="7.1824">
        <ele>321.6</ele>
        <time>2023-09-16T12:23:49Z</time>
      </trkpt>
      <trkpt lat="48.74734" lon="7.18234">
        <ele>322.2</ele>
        <time>2023-09-16T12:23:55Z</time>
      </trkpt>
      <trkpt lat="48.74717" lon="7.18227">
        <ele>323.3</ele>
        <time>2023-09-16T12:24:00Z</time>
      </trkpt>
      <trkpt lat="48.74706" lon="7.18226">
        <ele>323.9</ele>
        <time>2023-09-16T12:24:03Z</time>
      </trkpt>
      <trkpt lat="48.74693" lon="7.18202">
        <ele>324</ele>
        <time>2023-09-16T12:24:09Z</time>
      </trkpt>
      <trkpt lat="48.74681" lon="7.18177">
        <ele>323.9</ele>
        <time>2023-09-16T12:24:14Z</time>
      </trkpt>
      <trkpt lat="48.7467" lon="7.1815">
        <ele>324.4</ele>
        <time>2023-09-16T12:24:19Z</time>
      </trkpt>
      <trkpt lat="48.74659" lon="7.18124">
        <ele>325.8</ele>
        <time>2023-09-16T12:24:24Z</time>
      </trkpt>
      <trkpt lat="48.74648" lon="7.18099">
        <ele>326.1</ele>
        <time>2023-09-16T12:24:29Z</time>
      </trkpt>
      <trkpt lat="48.74634" lon="7.1808">
        <ele>327.5</ele>
        <time>2023-09-16T12:24:34Z</time>
      </trkpt>
      <trkpt lat="48.74618" lon="7.18067">
        <ele>328.6</ele>
        <time>2023-09-16T12:24:39Z</time>
      </trkpt>
      <trkpt lat="48.74602" lon="7.18053">
        <ele>329.9</ele>
        <time>2023-09-16T12:24:45Z</time>
      </trkpt>
      <trkpt lat="48.74585" lon="7.18039">
        <ele>330.7</ele>
        <time>2023-09-16T12:24:51Z</time>
      </trkpt>
      <trkpt lat="48.74565" lon="7.18027">
        <ele>331.6</ele>
        <time>2023-09-16T12:24:58Z</time>
      </trkpt>
      <trkpt lat="48.74562" lon="7.1802">
        <ele>331.5</ele>
        <time>2023-09-16T12:25:01Z</time>
      </trkpt>
      <trkpt lat="48.74563" lon="7.17991">
        <ele>330.9</ele>
        <time>2023-09-16T12:25:10Z</time>
      </trkpt>
      <trkpt lat="48.74559" lon="7.17963">
        <ele>329.8</ele>
        <time>2023-09-16T12:25:17Z</time>
      </trkpt>
      <trkpt lat="48.74559" lon="7.17957">
        <ele>329.5</ele>
        <time>2023-09-16T12:25:19Z</time>
      </trkpt>
      <trkpt lat="48.74561" lon="7.17952">
        <ele>329.2</ele>
        <time>2023-09-16T12:25:21Z</time>
      </trkpt>
      <trkpt lat="48.7457" lon="7.1794">
        <ele>328.3</ele>
        <time>2023-09-16T12:25:28Z</time>
      </trkpt>
      <trkpt lat="48.74569" lon="7.17933">
        <ele>328</ele>
        <time>2023-09-16T12:25:32Z</time>
      </trkpt>
      <trkpt lat="48.7457" lon="7.17935">
        <ele>328</ele>
        <time>2023-09-16T12:25:35Z</time>
      </trkpt>
      <trkpt lat="48.74559" lon="7.17955">
        <ele>329.3</ele>
        <time>2023-09-16T12:25:46Z</time>
      </trkpt>
      <trkpt lat="48.74545" lon="7.17975">
        <ele>330.9</ele>
        <time>2023-09-16T12:25:54Z</time>
      </trkpt>
      <trkpt lat="48.74543" lon="7.18004">
        <ele>332</ele>
        <time>2023-09-16T12:26:01Z</time>
      </trkpt>
      <trkpt lat="48.74545" lon="7.18036">
        <ele>332.5</ele>
        <time>2023-09-16T12:26:08Z</time>
      </trkpt>
      <trkpt lat="48.74551" lon="7.18063">
        <ele>332.8</ele>
        <time>2023-09-16T12:26:15Z</time>
      </trkpt>
      <trkpt lat="48.74555" lon="7.18093">
        <ele>333.6</ele>
        <time>2023-09-16T12:26:21Z</time>
      </trkpt>
      <trkpt lat="48.74564" lon="7.18117">
        <ele>333.9</ele>
        <time>2023-09-16T12:26:26Z</time>
      </trkpt>
      <trkpt lat="48.74572" lon="7.18143">
        <ele>334.1</ele>
        <time>2023-09-16T12:26:32Z</time>
      </trkpt>
      <trkpt lat="48.74583" lon="7.18165">
        <ele>334</ele>
        <time>2023-09-16T12:26:38Z</time>
      </trkpt>
      <trkpt lat="48.74592" lon="7.18194">
        <ele>333.8</ele>
        <time>2023-09-16T12:26:44Z</time>
      </trkpt>
      <trkpt lat="48.74599" lon="7.18222">
        <ele>333.6</ele>
        <time>2023-09-16T12:26:49Z</time>
      </trkpt>
      <trkpt lat="48.74601" lon="7.18253">
        <ele>333.2</ele>
        <time>2023-09-16T12:26:55Z</time>
      </trkpt>
      <trkpt lat="48.74604" lon="7.18284">
        <ele>332.9</ele>
        <time>2023-09-16T12:27:02Z</time>
      </trkpt>
      <trkpt lat="48.74604" lon="7.18312">
        <ele>332.8</ele>
        <time>2023-09-16T12:27:08Z</time>
      </trkpt>
      <trkpt lat="48.74606" lon="7.18341">
        <ele>332.4</ele>
        <time>2023-09-16T12:27:15Z</time>
      </trkpt>
      <trkpt lat="48.7461" lon="7.18368">
        <ele>332.1</ele>
        <time>2023-09-16T12:27:21Z</time>
      </trkpt>
      <trkpt lat="48.74616" lon="7.18395">
        <ele>332</ele>
        <time>2023-09-16T12:27:27Z</time>
      </trkpt>
      <trkpt lat="48.74624" lon="7.18421">
        <ele>331.6</ele>
        <time>2023-09-16T12:27:33Z</time>
      </trkpt>
      <trkpt lat="48.74629" lon="7.18451">
        <ele>331.7</ele>
        <time>2023-09-16T12:27:40Z</time>
      </trkpt>
      <trkpt lat="48.74633" lon="7.18461">
        <ele>331.8</ele>
        <time>2023-09-16T12:27:43Z</time>
      </trkpt>
      <trkpt lat="48.74636" lon="7.1846">
        <ele>331.7</ele>
        <time>2023-09-16T12:27:45Z</time>
      </trkpt>
      <trkpt lat="48.74654" lon="7.18452">
        <ele>331</ele>
        <time>2023-09-16T12:27:51Z</time>
      </trkpt>
      <trkpt lat="48.74672" lon="7.18456">
        <ele>330.8</ele>
        <time>2023-09-16T12:27:57Z</time>
      </trkpt>
      <trkpt lat="48.74675" lon="7.18454">
        <ele>330.8</ele>
        <time>2023-09-16T12:28:02Z</time>
      </trkpt>
      <trkpt lat="48.74674" lon="7.18454">
        <ele>330.8</ele>
        <time>2023-09-16T12:28:04Z</time>
      </trkpt>
      <trkpt lat="48.74659" lon="7.18471">
        <ele>331.1</ele>
        <time>2023-09-16T12:28:13Z</time>
      </trkpt>
      <trkpt lat="48.74653" lon="7.18476">
        <ele>331.4</ele>
        <time>2023-09-16T12:28:17Z</time>
      </trkpt>
      <trkpt lat="48.74647" lon="7.18499">
        <ele>332.1</ele>
        <time>2023-09-16T12:28:23Z</time>
      </trkpt>
      <trkpt lat="48.74631" lon="7.18513">
        <ele>334</ele>
        <time>2023-09-16T12:28:30Z</time>
      </trkpt>
      <trkpt lat="48.74612" lon="7.18521">
        <ele>335.2</ele>
        <time>2023-09-16T12:28:38Z</time>
      </trkpt>
      <trkpt lat="48.74596" lon="7.18533">
        <ele>336.4</ele>
        <time>2023-09-16T12:28:45Z</time>
      </trkpt>
      <trkpt lat="48.7458" lon="7.18547">
        <ele>338.4</ele>
        <time>2023-09-16T12:28:51Z</time>
      </trkpt>
      <trkpt lat="48.74561" lon="7.18554">
        <ele>340.5</ele>
        <time>2023-09-16T12:28:57Z</time>
      </trkpt>
      <trkpt lat="48.74541" lon="7.1856">
        <ele>342.5</ele>
        <time>2023-09-16T12:29:05Z</time>
      </trkpt>
      <trkpt lat="48.74524" lon="7.18568">
        <ele>343.9</ele>
        <time>2023-09-16T12:29:14Z</time>
      </trkpt>
      <trkpt lat="48.74512" lon="7.1859">
        <ele>345.2</ele>
        <time>2023-09-16T12:29:21Z</time>
      </trkpt>
      <trkpt lat="48.74504" lon="7.18599">
        <ele>345.6</ele>
        <time>2023-09-16T12:29:25Z</time>
      </trkpt>
      <trkpt lat="48.74485" lon="7.18606">
        <ele>345.9</ele>
        <time>2023-09-16T12:29:32Z</time>
      </trkpt>
      <trkpt lat="48.74477" lon="7.18605">
        <ele>345.7</ele>
        <time>2023-09-16T12:29:35Z</time>
      </trkpt>
      <trkpt lat="48.74461" lon="7.18589">
        <ele>343.6</ele>
        <time>2023-09-16T12:29:42Z</time>
      </trkpt>
      <trkpt lat="48.74455" lon="7.18575">
        <ele>342.3</ele>
        <time>2023-09-16T12:29:47Z</time>
      </trkpt>
      <trkpt lat="48.74471" lon="7.18558">
        <ele>341.3</ele>
        <time>2023-09-16T12:29:55Z</time>
      </trkpt>
      <trkpt lat="48.74477" lon="7.18548">
        <ele>340.3</ele>
        <time>2023-09-16T12:30:02Z</time>
      </trkpt>
      <trkpt lat="48.74477" lon="7.18546">
        <ele>340.3</ele>
        <time>2023-09-16T12:30:04Z</time>
      </trkpt>
      <trkpt lat="48.74483" lon="7.18562">
        <ele>342.2</ele>
        <time>2023-09-16T12:30:21Z</time>
      </trkpt>
      <trkpt lat="48.74492" lon="7.18589">
        <ele>344.9</ele>
        <time>2023-09-16T12:30:28Z</time>
      </trkpt>
      <trkpt lat="48.74501" lon="7.18615">
        <ele>346.1</ele>
        <time>2023-09-16T12:30:36Z</time>
      </trkpt>
      <trkpt lat="48.74514" lon="7.1864">
        <ele>344.9</ele>
        <time>2023-09-16T12:30:44Z</time>
      </trkpt>
      <trkpt lat="48.74527" lon="7.18666">
        <ele>344.9</ele>
        <time>2023-09-16T12:30:50Z</time>
      </trkpt>
      <trkpt lat="48.74538" lon="7.18694">
        <ele>347.1</ele>
        <time>2023-09-16T12:30:56Z</time>
      </trkpt>
      <trkpt lat="48.74547" lon="7.18721">
        <ele>349</ele>
        <time>2023-09-16T12:31:02Z</time>
      </trkpt>
      <trkpt lat="48.74558" lon="7.18746">
        <ele>349.7</ele>
        <time>2023-09-16T12:31:08Z</time>
      </trkpt>
      <trkpt lat="48.7457" lon="7.18768">
        <ele>350.1</ele>
        <time>2023-09-16T12:31:14Z</time>
      </trkpt>
      <trkpt lat="48.74577" lon="7.18794">
        <ele>350.3</ele>
        <time>2023-09-16T12:31:20Z</time>
      </trkpt>
      <trkpt lat="48.74581" lon="7.18822">
        <ele>350.5</ele>
        <time>2023-09-16T12:31:26Z</time>
      </trkpt>
      <trkpt lat="48.7459" lon="7.18846">
        <ele>351</ele>
        <time>2023-09-16T12:31:32Z</time>
      </trkpt>
      <trkpt lat="48.746" lon="7.18871">
        <ele>351.2</ele>
        <time>2023-09-16T12:31:39Z</time>
      </trkpt>
      <trkpt lat="48.74606" lon="7.18899">
        <ele>350.9</ele>
        <time>2023-09-16T12:31:45Z</time>
      </trkpt>
      <trkpt lat="48.74619" lon="7.18922">
        <ele>349.6</ele>
        <time>2023-09-16T12:31:52Z</time>
      </trkpt>
      <trkpt lat="48.74634" lon="7.18944">
        <ele>348.5</ele>
        <time>2023-09-16T12:31:59Z</time>
      </trkpt>
      <trkpt lat="48.74652" lon="7.18953">
        <ele>346.7</ele>
        <time>2023-09-16T12:32:07Z</time>
      </trkpt>
      <trkpt lat="48.74672" lon="7.18949">
        <ele>343.8</ele>
        <time>2023-09-16T12:32:14Z</time>
      </trkpt>
      <trkpt lat="48.74685" lon="7.18935">
        <ele>342</ele>
        <time>2023-09-16T12:32:20Z</time>
      </trkpt>
      <trkpt lat="48.74679" lon="7.18909">
        <ele>343.4</ele>
        <time>2023-09-16T12:32:26Z</time>
      </trkpt>
      <trkpt lat="48.74666" lon="7.18885">
        <ele>345.2</ele>
        <time>2023-09-16T12:32:33Z</time>
      </trkpt>
      <trkpt lat="48.74656" lon="7.18875">
        <ele>346.9</ele>
        <time>2023-09-16T12:32:40Z</time>
      </trkpt>
      <trkpt lat="48.74638" lon="7.18867">
        <ele>348.9</ele>
        <time>2023-09-16T12:32:49Z</time>
      </trkpt>
      <trkpt lat="48.7462" lon="7.1886">
        <ele>349.9</ele>
        <time>2023-09-16T12:32:55Z</time>
      </trkpt>
      <trkpt lat="48.74601" lon="7.18857">
        <ele>350.9</ele>
        <time>2023-09-16T12:33:02Z</time>
      </trkpt>
      <trkpt lat="48.74583" lon="7.18861">
        <ele>351.6</ele>
        <time>2023-09-16T12:33:09Z</time>
      </trkpt>
      <trkpt lat="48.74562" lon="7.18861">
        <ele>352.6</ele>
        <time>2023-09-16T12:33:17Z</time>
      </trkpt>
      <trkpt lat="48.74544" lon="7.18854">
        <ele>353.2</ele>
        <time>2023-09-16T12:33:23Z</time>
      </trkpt>
      <trkpt lat="48.74525" lon="7.18852">
        <ele>353.8</ele>
        <time>2023-09-16T12:33:29Z</time>
      </trkpt>
      <trkpt lat="48.74507" lon="7.18856">
        <ele>354.6</ele>
        <time>2023-09-16T12:33:38Z</time>
      </trkpt>
      <trkpt lat="48.74488" lon="7.18866">
        <ele>355.8</ele>
        <time>2023-09-16T12:33:45Z</time>
      </trkpt>
      <trkpt lat="48.74469" lon="7.18866">
        <ele>356.2</ele>
        <time>2023-09-16T12:33:51Z</time>
      </trkpt>
      <trkpt lat="48.74448" lon="7.18861">
        <ele>356.5</ele>
        <time>2023-09-16T12:33:58Z</time>
      </trkpt>
      <trkpt lat="48.7443" lon="7.18849">
        <ele>356.6</ele>
        <time>2023-09-16T12:34:04Z</time>
      </trkpt>
      <trkpt lat="48.74413" lon="7.1884">
        <ele>356.9</ele>
        <time>2023-09-16T12:34:11Z</time>
      </trkpt>
      <trkpt lat="48.74406" lon="7.18841">
        <ele>357.4</ele>
        <time>2023-09-16T12:34:14Z</time>
      </trkpt>
      <trkpt lat="48.74393" lon="7.18846">
        <ele>358.1</ele>
        <time>2023-09-16T12:34:21Z</time>
      </trkpt>
      <trkpt lat="48.7439" lon="7.18845">
        <ele>358.2</ele>
        <time>2023-09-16T12:34:23Z</time>
      </trkpt>
      <trkpt lat="48.74371" lon="7.18839">
        <ele>358.3</ele>
        <time>2023-09-16T12:34:31Z</time>
      </trkpt>
      <trkpt lat="48.74354" lon="7.18829">
        <ele>358.2</ele>
        <time>2023-09-16T12:34:38Z</time>
      </trkpt>
      <trkpt lat="48.74335" lon="7.1882">
        <ele>358.1</ele>
        <time>2023-09-16T12:34:45Z</time>
      </trkpt>
      <trkpt lat="48.74316" lon="7.18817">
        <ele>357.9</ele>
        <time>2023-09-16T12:34:51Z</time>
      </trkpt>
      <trkpt lat="48.74295" lon="7.18813">
        <ele>357.2</ele>
        <time>2023-09-16T12:34:58Z</time>
      </trkpt>
      <trkpt lat="48.74278" lon="7.18808">
        <ele>356.2</ele>
        <time>2023-09-16T12:35:04Z</time>
      </trkpt>
      <trkpt lat="48.74257" lon="7.18806">
        <ele>355.1</ele>
        <time>2023-09-16T12:35:11Z</time>
      </trkpt>
      <trkpt lat="48.7424" lon="7.18788">
        <ele>354.3</ele>
        <time>2023-09-16T12:35:17Z</time>
      </trkpt>
      <trkpt lat="48.74223" lon="7.18772">
        <ele>353.5</ele>
        <time>2023-09-16T12:35:23Z</time>
      </trkpt>
      <trkpt lat="48.74205" lon="7.18779">
        <ele>352.9</ele>
        <time>2023-09-16T12:35:30Z</time>
      </trkpt>
      <trkpt lat="48.74189" lon="7.1879">
        <ele>352.4</ele>
        <time>2023-09-16T12:35:38Z</time>
      </trkpt>
      <trkpt lat="48.74171" lon="7.18784">
        <ele>352</ele>
        <time>2023-09-16T12:35:44Z</time>
      </trkpt>
      <trkpt lat="48.74155" lon="7.18766">
        <ele>351.4</ele>
        <time>2023-09-16T12:35:50Z</time>
      </trkpt>
      <trkpt lat="48.74138" lon="7.1875">
        <ele>351</ele>
        <time>2023-09-16T12:35:56Z</time>
      </trkpt>
      <trkpt lat="48.7412" lon="7.18741">
        <ele>350.6</ele>
        <time>2023-09-16T12:36:03Z</time>
      </trkpt>
      <trkpt lat="48.741" lon="7.1874">
        <ele>350.3</ele>
        <time>2023-09-16T12:36:10Z</time>
      </trkpt>
      <trkpt lat="48.74082" lon="7.18754">
        <ele>349.9</ele>
        <time>2023-09-16T12:36:17Z</time>
      </trkpt>
      <trkpt lat="48.74065" lon="7.18768">
        <ele>349.5</ele>
        <time>2023-09-16T12:36:23Z</time>
      </trkpt>
      <trkpt lat="48.74044" lon="7.18763">
        <ele>349.5</ele>
        <time>2023-09-16T12:36:31Z</time>
      </trkpt>
      <trkpt lat="48.74032" lon="7.18771">
        <ele>349.3</ele>
        <time>2023-09-16T12:36:48Z</time>
      </trkpt>
      <trkpt lat="48.74037" lon="7.18792">
        <ele>349</ele>
        <time>2023-09-16T12:36:56Z</time>
      </trkpt>
      <trkpt lat="48.74047" lon="7.18813">
        <ele>348.8</ele>
        <time>2023-09-16T12:37:06Z</time>
      </trkpt>
      <trkpt lat="48.7406" lon="7.18834">
        <ele>348.6</ele>
        <time>2023-09-16T12:37:15Z</time>
      </trkpt>
      <trkpt lat="48.74075" lon="7.18853">
        <ele>348.5</ele>
        <time>2023-09-16T12:37:25Z</time>
      </trkpt>
      <trkpt lat="48.74091" lon="7.18873">
        <ele>348.3</ele>
        <time>2023-09-16T12:37:33Z</time>
      </trkpt>
      <trkpt lat="48.741" lon="7.18898">
        <ele>347.7</ele>
        <time>2023-09-16T12:37:40Z</time>
      </trkpt>
      <trkpt lat="48.74103" lon="7.18926">
        <ele>347.2</ele>
        <time>2023-09-16T12:37:47Z</time>
      </trkpt>
      <trkpt lat="48.74104" lon="7.18954">
        <ele>346.6</ele>
        <time>2023-09-16T12:37:54Z</time>
      </trkpt>
      <trkpt lat="48.74109" lon="7.18964">
        <ele>346.7</ele>
        <time>2023-09-16T12:37:58Z</time>
      </trkpt>
      <trkpt lat="48.74125" lon="7.18974">
        <ele>347.2</ele>
        <time>2023-09-16T12:38:10Z</time>
      </trkpt>
      <trkpt lat="48.74135" lon="7.18997">
        <ele>347.5</ele>
        <time>2023-09-16T12:38:23Z</time>
      </trkpt>
      <trkpt lat="48.74144" lon="7.19024">
        <ele>348</ele>
        <time>2023-09-16T12:38:31Z</time>
      </trkpt>
      <trkpt lat="48.74149" lon="7.1905">
        <ele>348.6</ele>
        <time>2023-09-16T12:38:39Z</time>
      </trkpt>
      <trkpt lat="48.74156" lon="7.19078">
        <ele>349.5</ele>
        <time>2023-09-16T12:38:46Z</time>
      </trkpt>
      <trkpt lat="48.74159" lon="7.19098">
        <ele>350.1</ele>
        <time>2023-09-16T12:38:54Z</time>
      </trkpt>
      <trkpt lat="48.74166" lon="7.19126">
        <ele>350.7</ele>
        <time>2023-09-16T12:39:02Z</time>
      </trkpt>
      <trkpt lat="48.74177" lon="7.19152">
        <ele>351.4</ele>
        <time>2023-09-16T12:39:09Z</time>
      </trkpt>
      <trkpt lat="48.74185" lon="7.19176">
        <ele>351.7</ele>
        <time>2023-09-16T12:39:14Z</time>
      </trkpt>
      <trkpt lat="48.74186" lon="7.19204">
        <ele>351.6</ele>
        <time>2023-09-16T12:39:22Z</time>
      </trkpt>
      <trkpt lat="48.74189" lon="7.19235">
        <ele>351.4</ele>
        <time>2023-09-16T12:39:29Z</time>
      </trkpt>
      <trkpt lat="48.74193" lon="7.19261">
        <ele>351.1</ele>
        <time>2023-09-16T12:39:34Z</time>
      </trkpt>
      <trkpt lat="48.74195" lon="7.19289">
        <ele>351.2</ele>
        <time>2023-09-16T12:39:39Z</time>
      </trkpt>
      <trkpt lat="48.74196" lon="7.19318">
        <ele>351.6</ele>
        <time>2023-09-16T12:39:45Z</time>
      </trkpt>
      <trkpt lat="48.74198" lon="7.19348">
        <ele>351.2</ele>
        <time>2023-09-16T12:39:52Z</time>
      </trkpt>
      <trkpt lat="48.74199" lon="7.19376">
        <ele>349.1</ele>
        <time>2023-09-16T12:40:00Z</time>
      </trkpt>
      <trkpt lat="48.74201" lon="7.19381">
        <ele>348.7</ele>
        <time>2023-09-16T12:40:03Z</time>
      </trkpt>
      <trkpt lat="48.74201" lon="7.19383">
        <ele>348.4</ele>
        <time>2023-09-16T12:40:06Z</time>
      </trkpt>
      <trkpt lat="48.74217" lon="7.19368">
        <ele>349.3</ele>
        <time>2023-09-16T12:40:19Z</time>
      </trkpt>
      <trkpt lat="48.74236" lon="7.19361">
        <ele>349.3</ele>
        <time>2023-09-16T12:40:26Z</time>
      </trkpt>
      <trkpt lat="48.74243" lon="7.19358">
        <ele>349.7</ele>
        <time>2023-09-16T12:40:30Z</time>
      </trkpt>
      <trkpt lat="48.74258" lon="7.19336">
        <ele>351.2</ele>
        <time>2023-09-16T12:40:38Z</time>
      </trkpt>
      <trkpt lat="48.74276" lon="7.19325">
        <ele>351.9</ele>
        <time>2023-09-16T12:40:44Z</time>
      </trkpt>
      <trkpt lat="48.74296" lon="7.19317">
        <ele>352.3</ele>
        <time>2023-09-16T12:40:50Z</time>
      </trkpt>
      <trkpt lat="48.74314" lon="7.19305">
        <ele>352.3</ele>
        <time>2023-09-16T12:40:55Z</time>
      </trkpt>
      <trkpt lat="48.74328" lon="7.19286">
        <ele>352.1</ele>
        <time>2023-09-16T12:41:00Z</time>
      </trkpt>
      <trkpt lat="48.74344" lon="7.1927">
        <ele>351.1</ele>
        <time>2023-09-16T12:41:06Z</time>
      </trkpt>
      <trkpt lat="48.74362" lon="7.19253">
        <ele>350.6</ele>
        <time>2023-09-16T12:41:11Z</time>
      </trkpt>
      <trkpt lat="48.74377" lon="7.19233">
        <ele>350.5</ele>
        <time>2023-09-16T12:41:16Z</time>
      </trkpt>
      <trkpt lat="48.74392" lon="7.1921">
        <ele>351.2</ele>
        <time>2023-09-16T12:41:22Z</time>
      </trkpt>
      <trkpt lat="48.74407" lon="7.19189">
        <ele>352.4</ele>
        <time>2023-09-16T12:41:27Z</time>
      </trkpt>
      <trkpt lat="48.74422" lon="7.19172">
        <ele>353.2</ele>
        <time>2023-09-16T12:41:31Z</time>
      </trkpt>
      <trkpt lat="48.74435" lon="7.19149">
        <ele>354.7</ele>
        <time>2023-09-16T12:41:36Z</time>
      </trkpt>
      <trkpt lat="48.74451" lon="7.19133">
        <ele>354.2</ele>
        <time>2023-09-16T12:41:42Z</time>
      </trkpt>
      <trkpt lat="48.74456" lon="7.19125">
        <ele>354</ele>
        <time>2023-09-16T12:41:49Z</time>
      </trkpt>
      <trkpt lat="48.74462" lon="7.191">
        <ele>354.7</ele>
        <time>2023-09-16T12:41:58Z</time>
      </trkpt>
      <trkpt lat="48.74464" lon="7.19093">
        <ele>355.1</ele>
        <time>2023-09-16T12:42:02Z</time>
      </trkpt>
      <trkpt lat="48.7448" lon="7.19076">
        <ele>354.7</ele>
        <time>2023-09-16T12:42:12Z</time>
      </trkpt>
      <trkpt lat="48.74489" lon="7.19051">
        <ele>355</ele>
        <time>2023-09-16T12:42:18Z</time>
      </trkpt>
      <trkpt lat="48.74503" lon="7.19029">
        <ele>354.8</ele>
        <time>2023-09-16T12:42:24Z</time>
      </trkpt>
      <trkpt lat="48.74517" lon="7.19011">
        <ele>354.5</ele>
        <time>2023-09-16T12:42:29Z</time>
      </trkpt>
      <trkpt lat="48.74532" lon="7.18992">
        <ele>353.7</ele>
        <time>2023-09-16T12:42:34Z</time>
      </trkpt>
      <trkpt lat="48.74547" lon="7.18971">
        <ele>352.6</ele>
        <time>2023-09-16T12:42:39Z</time>
      </trkpt>
      <trkpt lat="48.74561" lon="7.18947">
        <ele>352.3</ele>
        <time>2023-09-16T12:42:44Z</time>
      </trkpt>
      <trkpt lat="48.74573" lon="7.18926">
        <ele>352.1</ele>
        <time>2023-09-16T12:42:49Z</time>
      </trkpt>
      <trkpt lat="48.74587" lon="7.18906">
        <ele>351.7</ele>
        <time>2023-09-16T12:42:54Z</time>
      </trkpt>
      <trkpt lat="48.74603" lon="7.18891">
        <ele>351.2</ele>
        <time>2023-09-16T12:42:59Z</time>
      </trkpt>
      <trkpt lat="48.74618" lon="7.18876">
        <ele>350.4</ele>
        <time>2023-09-16T12:43:05Z</time>
      </trkpt>
      <trkpt lat="48.74636" lon="7.18869">
        <ele>349.1</ele>
        <time>2023-09-16T12:43:10Z</time>
      </trkpt>
      <trkpt lat="48.74654" lon="7.18869">
        <ele>347.2</ele>
        <time>2023-09-16T12:43:16Z</time>
      </trkpt>
      <trkpt lat="48.74657" lon="7.1887">
        <ele>346.8</ele>
        <time>2023-09-16T12:43:20Z</time>
      </trkpt>
      <trkpt lat="48.74659" lon="7.18898">
        <ele>346.4</ele>
        <time>2023-09-16T12:43:28Z</time>
      </trkpt>
      <trkpt lat="48.74661" lon="7.18927">
        <ele>345.6</ele>
        <time>2023-09-16T12:43:35Z</time>
      </trkpt>
      <trkpt lat="48.74661" lon="7.1896">
        <ele>345.7</ele>
        <time>2023-09-16T12:43:41Z</time>
      </trkpt>
      <trkpt lat="48.74667" lon="7.18992">
        <ele>345.3</ele>
        <time>2023-09-16T12:43:46Z</time>
      </trkpt>
      <trkpt lat="48.74671" lon="7.19018">
        <ele>345.1</ele>
        <time>2023-09-16T12:43:51Z</time>
      </trkpt>
      <trkpt lat="48.74677" lon="7.19045">
        <ele>345</ele>
        <time>2023-09-16T12:43:57Z</time>
      </trkpt>
      <trkpt lat="48.74682" lon="7.19071">
        <ele>344.4</ele>
        <time>2023-09-16T12:44:04Z</time>
      </trkpt>
      <trkpt lat="48.74689" lon="7.19101">
        <ele>341.4</ele>
        <time>2023-09-16T12:44:11Z</time>
      </trkpt>
      <trkpt lat="48.74692" lon="7.19124">
        <ele>337.3</ele>
        <time>2023-09-16T12:44:21Z</time>
      </trkpt>
      <trkpt lat="48.74693" lon="7.19122">
        <ele>337.9</ele>
        <time>2023-09-16T12:44:23Z</time>
      </trkpt>
      <trkpt lat="48.74709" lon="7.19107">
        <ele>339</ele>
        <time>2023-09-16T12:44:30Z</time>
      </trkpt>
      <trkpt lat="48.74728" lon="7.19105">
        <ele>338.1</ele>
        <time>2023-09-16T12:44:37Z</time>
      </trkpt>
      <trkpt lat="48.74747" lon="7.19103">
        <ele>337.6</ele>
        <time>2023-09-16T12:44:44Z</time>
      </trkpt>
      <trkpt lat="48.74766" lon="7.19093">
        <ele>337.7</ele>
        <time>2023-09-16T12:44:50Z</time>
      </trkpt>
      <trkpt lat="48.74785" lon="7.19085">
        <ele>337.6</ele>
        <time>2023-09-16T12:44:55Z</time>
      </trkpt>
      <trkpt lat="48.74802" lon="7.19074">
        <ele>337.6</ele>
        <time>2023-09-16T12:45:01Z</time>
      </trkpt>
      <trkpt lat="48.74803" lon="7.19074">
        <ele>337.6</ele>
        <time>2023-09-16T12:45:03Z</time>
      </trkpt>
      <trkpt lat="48.74805" lon="7.19075">
        <ele>337.5</ele>
        <time>2023-09-16T12:45:05Z</time>
      </trkpt>
      <trkpt lat="48.74816" lon="7.19076">
        <ele>336.9</ele>
        <time>2023-09-16T12:45:15Z</time>
      </trkpt>
      <trkpt lat="48.74817" lon="7.19076">
        <ele>336.9</ele>
        <time>2023-09-16T12:45:17Z</time>
      </trkpt>
      <trkpt lat="48.74821" lon="7.19079">
        <ele>336.5</ele>
        <time>2023-09-16T12:45:21Z</time>
      </trkpt>
      <trkpt lat="48.74831" lon="7.19084">
        <ele>335.8</ele>
        <time>2023-09-16T12:45:27Z</time>
      </trkpt>
      <trkpt lat="48.74839" lon="7.19093">
        <ele>335</ele>
        <time>2023-09-16T12:45:37Z</time>
      </trkpt>
      <trkpt lat="48.74841" lon="7.19098">
        <ele>334.5</ele>
        <time>2023-09-16T12:45:41Z</time>
      </trkpt>
      <trkpt lat="48.74843" lon="7.19104">
        <ele>334.3</ele>
        <time>2023-09-16T12:45:44Z</time>
      </trkpt>
      <trkpt lat="48.74849" lon="7.19113">
        <ele>333.6</ele>
        <time>2023-09-16T12:45:51Z</time>
      </trkpt>
      <trkpt lat="48.7485" lon="7.19116">
        <ele>333.3</ele>
        <time>2023-09-16T12:45:54Z</time>
      </trkpt>
      <trkpt lat="48.7485" lon="7.19127">
        <ele>333</ele>
        <time>2023-09-16T12:49:45Z</time>
      </trkpt>
      <trkpt lat="48.7485" lon="7.19127">
        <ele>333</ele>
        <time>2023-09-16T12:49:46Z</time>
      </trkpt>
      <trkpt lat="48.74855" lon="7.19122">
        <ele>333</ele>
        <time>2023-09-16T12:49:53Z</time>
      </trkpt>
      <trkpt lat="48.7487" lon="7.19103">
        <ele>332.4</ele>
        <time>2023-09-16T12:50:00Z</time>
      </trkpt>
      <trkpt lat="48.74885" lon="7.19084">
        <ele>332.1</ele>
        <time>2023-09-16T12:50:06Z</time>
      </trkpt>
      <trkpt lat="48.74901" lon="7.19063">
        <ele>331.2</ele>
        <time>2023-09-16T12:50:12Z</time>
      </trkpt>
      <trkpt lat="48.74917" lon="7.1904">
        <ele>330</ele>
        <time>2023-09-16T12:50:18Z</time>
      </trkpt>
      <trkpt lat="48.74931" lon="7.19022">
        <ele>329.3</ele>
        <time>2023-09-16T12:50:23Z</time>
      </trkpt>
      <trkpt lat="48.74944" lon="7.19002">
        <ele>328.9</ele>
        <time>2023-09-16T12:50:28Z</time>
      </trkpt>
      <trkpt lat="48.7496" lon="7.18984">
        <ele>329</ele>
        <time>2023-09-16T12:50:34Z</time>
      </trkpt>
      <trkpt lat="48.74975" lon="7.18964">
        <ele>329.2</ele>
        <time>2023-09-16T12:50:40Z</time>
      </trkpt>
      <trkpt lat="48.74986" lon="7.18939">
        <ele>329.1</ele>
        <time>2023-09-16T12:50:46Z</time>
      </trkpt>
      <trkpt lat="48.74988" lon="7.18931">
        <ele>329</ele>
        <time>2023-09-16T12:50:50Z</time>
      </trkpt>
      <trkpt lat="48.74973" lon="7.18913">
        <ele>328.9</ele>
        <time>2023-09-16T12:50:58Z</time>
      </trkpt>
      <trkpt lat="48.74955" lon="7.18903">
        <ele>328.7</ele>
        <time>2023-09-16T12:51:05Z</time>
      </trkpt>
      <trkpt lat="48.74938" lon="7.18888">
        <ele>328.2</ele>
        <time>2023-09-16T12:51:12Z</time>
      </trkpt>
      <trkpt lat="48.74922" lon="7.1887">
        <ele>327.8</ele>
        <time>2023-09-16T12:51:19Z</time>
      </trkpt>
      <trkpt lat="48.74912" lon="7.18846">
        <ele>327.6</ele>
        <time>2023-09-16T12:51:27Z</time>
      </trkpt>
      <trkpt lat="48.749" lon="7.18825">
        <ele>327.6</ele>
        <time>2023-09-16T12:51:34Z</time>
      </trkpt>
      <trkpt lat="48.74888" lon="7.18798">
        <ele>327.7</ele>
        <time>2023-09-16T12:51:40Z</time>
      </trkpt>
      <trkpt lat="48.74877" lon="7.18774">
        <ele>327.2</ele>
        <time>2023-09-16T12:51:45Z</time>
      </trkpt>
      <trkpt lat="48.74867" lon="7.18753">
        <ele>326.8</ele>
        <time>2023-09-16T12:51:52Z</time>
      </trkpt>
      <trkpt lat="48.74854" lon="7.18732">
        <ele>326.4</ele>
        <time>2023-09-16T12:52:00Z</time>
      </trkpt>
      <trkpt lat="48.74844" lon="7.18704">
        <ele>325.9</ele>
        <time>2023-09-16T12:52:05Z</time>
      </trkpt>
      <trkpt lat="48.74834" lon="7.18678">
        <ele>325.6</ele>
        <time>2023-09-16T12:52:10Z</time>
      </trkpt>
      <trkpt lat="48.74825" lon="7.1865">
        <ele>325.4</ele>
        <time>2023-09-16T12:52:15Z</time>
      </trkpt>
      <trkpt lat="48.74815" lon="7.18622">
        <ele>325.1</ele>
        <time>2023-09-16T12:52:20Z</time>
      </trkpt>
      <trkpt lat="48.74806" lon="7.18595">
        <ele>324.8</ele>
        <time>2023-09-16T12:52:25Z</time>
      </trkpt>
      <trkpt lat="48.74798" lon="7.18567">
        <ele>324.4</ele>
        <time>2023-09-16T12:52:31Z</time>
      </trkpt>
      <trkpt lat="48.74785" lon="7.18547">
        <ele>324.1</ele>
        <time>2023-09-16T12:52:38Z</time>
      </trkpt>
      <trkpt lat="48.74767" lon="7.18537">
        <ele>324.2</ele>
        <time>2023-09-16T12:52:50Z</time>
      </trkpt>
      <trkpt lat="48.74751" lon="7.18524">
        <ele>324.3</ele>
        <time>2023-09-16T12:52:59Z</time>
      </trkpt>
      <trkpt lat="48.74734" lon="7.18512">
        <ele>324.5</ele>
        <time>2023-09-16T12:53:08Z</time>
      </trkpt>
      <trkpt lat="48.74715" lon="7.18513">
        <ele>324.8</ele>
        <time>2023-09-16T12:53:17Z</time>
      </trkpt>
      <trkpt lat="48.74699" lon="7.18502">
        <ele>325</ele>
        <time>2023-09-16T12:53:26Z</time>
      </trkpt>
      <trkpt lat="48.74681" lon="7.18492">
        <ele>325.3</ele>
        <time>2023-09-16T12:53:35Z</time>
      </trkpt>
      <trkpt lat="48.74675" lon="7.18477">
        <ele>325.4</ele>
        <time>2023-09-16T12:53:43Z</time>
      </trkpt>
      <trkpt lat="48.74658" lon="7.18484">
        <ele>325.9</ele>
        <time>2023-09-16T12:53:54Z</time>
      </trkpt>
      <trkpt lat="48.74649" lon="7.18488">
        <ele>326.2</ele>
        <time>2023-09-16T12:53:59Z</time>
      </trkpt>
      <trkpt lat="48.74643" lon="7.18515">
        <ele>327.7</ele>
        <time>2023-09-16T12:54:07Z</time>
      </trkpt>
      <trkpt lat="48.74632" lon="7.18537">
        <ele>329.9</ele>
        <time>2023-09-16T12:54:14Z</time>
      </trkpt>
      <trkpt lat="48.74615" lon="7.18556">
        <ele>331.3</ele>
        <time>2023-09-16T12:54:22Z</time>
      </trkpt>
      <trkpt lat="48.746" lon="7.18579">
        <ele>333.5</ele>
        <time>2023-09-16T12:54:28Z</time>
      </trkpt>
      <trkpt lat="48.74583" lon="7.18592">
        <ele>335.1</ele>
        <time>2023-09-16T12:54:33Z</time>
      </trkpt>
      <trkpt lat="48.74568" lon="7.18609">
        <ele>336.5</ele>
        <time>2023-09-16T12:54:40Z</time>
      </trkpt>
      <trkpt lat="48.74557" lon="7.18636">
        <ele>337.9</ele>
        <time>2023-09-16T12:54:46Z</time>
      </trkpt>
      <trkpt lat="48.74546" lon="7.18661">
        <ele>339.5</ele>
        <time>2023-09-16T12:54:52Z</time>
      </trkpt>
      <trkpt lat="48.74533" lon="7.18683">
        <ele>340.9</ele>
        <time>2023-09-16T12:54:59Z</time>
      </trkpt>
      <trkpt lat="48.74519" lon="7.187">
        <ele>341.9</ele>
        <time>2023-09-16T12:55:04Z</time>
      </trkpt>
      <trkpt lat="48.74502" lon="7.18718">
        <ele>342.8</ele>
        <time>2023-09-16T12:55:09Z</time>
      </trkpt>
      <trkpt lat="48.74487" lon="7.18734">
        <ele>343.7</ele>
        <time>2023-09-16T12:55:15Z</time>
      </trkpt>
      <trkpt lat="48.74471" lon="7.18752">
        <ele>344.9</ele>
        <time>2023-09-16T12:55:21Z</time>
      </trkpt>
      <trkpt lat="48.74457" lon="7.18771">
        <ele>345.9</ele>
        <time>2023-09-16T12:55:27Z</time>
      </trkpt>
      <trkpt lat="48.74441" lon="7.1879">
        <ele>347.6</ele>
        <time>2023-09-16T12:55:33Z</time>
      </trkpt>
      <trkpt lat="48.74423" lon="7.18804">
        <ele>348.8</ele>
        <time>2023-09-16T12:55:40Z</time>
      </trkpt>
      <trkpt lat="48.74407" lon="7.18819">
        <ele>350.4</ele>
        <time>2023-09-16T12:55:48Z</time>
      </trkpt>
      <trkpt lat="48.74396" lon="7.18841">
        <ele>352.4</ele>
        <time>2023-09-16T12:55:58Z</time>
      </trkpt>
      <trkpt lat="48.74395" lon="7.18845">
        <ele>352.5</ele>
        <time>2023-09-16T12:56:00Z</time>
      </trkpt>
      <trkpt lat="48.74387" lon="7.18875">
        <ele>353.2</ele>
        <time>2023-09-16T12:56:08Z</time>
      </trkpt>
      <trkpt lat="48.74379" lon="7.18901">
        <ele>353.5</ele>
        <time>2023-09-16T12:56:14Z</time>
      </trkpt>
      <trkpt lat="48.74368" lon="7.18927">
        <ele>353.9</ele>
        <time>2023-09-16T12:56:22Z</time>
      </trkpt>
      <trkpt lat="48.7436" lon="7.18953">
        <ele>353.9</ele>
        <time>2023-09-16T12:56:30Z</time>
      </trkpt>
      <trkpt lat="48.74355" lon="7.18981">
        <ele>353.9</ele>
        <time>2023-09-16T12:56:36Z</time>
      </trkpt>
      <trkpt lat="48.7435" lon="7.19008">
        <ele>353.6</ele>
        <time>2023-09-16T12:56:44Z</time>
      </trkpt>
      <trkpt lat="48.7435" lon="7.1901">
        <ele>353.6</ele>
        <time>2023-09-16T12:56:46Z</time>
      </trkpt>
      <trkpt lat="48.74368" lon="7.19013">
        <ele>353.5</ele>
        <time>2023-09-16T12:56:57Z</time>
      </trkpt>
      <trkpt lat="48.74385" lon="7.19005">
        <ele>353.3</ele>
        <time>2023-09-16T12:57:02Z</time>
      </trkpt>
      <trkpt lat="48.74404" lon="7.18997">
        <ele>353</ele>
        <time>2023-09-16T12:57:07Z</time>
      </trkpt>
      <trkpt lat="48.74421" lon="7.18986">
        <ele>352.7</ele>
        <time>2023-09-16T12:57:12Z</time>
      </trkpt>
      <trkpt lat="48.74441" lon="7.18977">
        <ele>352.2</ele>
        <time>2023-09-16T12:57:18Z</time>
      </trkpt>
      <trkpt lat="48.74462" lon="7.18972">
        <ele>351.8</ele>
        <time>2023-09-16T12:57:24Z</time>
      </trkpt>
      <trkpt lat="48.7448" lon="7.1897">
        <ele>351.4</ele>
        <time>2023-09-16T12:57:29Z</time>
      </trkpt>
      <trkpt lat="48.74501" lon="7.18966">
        <ele>350.7</ele>
        <time>2023-09-16T12:57:35Z</time>
      </trkpt>
      <trkpt lat="48.74522" lon="7.18961">
        <ele>349.4</ele>
        <time>2023-09-16T12:57:41Z</time>
      </trkpt>
      <trkpt lat="48.74543" lon="7.18964">
        <ele>347.8</ele>
        <time>2023-09-16T12:57:47Z</time>
      </trkpt>
      <trkpt lat="48.74559" lon="7.1898">
        <ele>346.1</ele>
        <time>2023-09-16T12:57:52Z</time>
      </trkpt>
      <trkpt lat="48.74573" lon="7.18999">
        <ele>344.8</ele>
        <time>2023-09-16T12:57:58Z</time>
      </trkpt>
      <trkpt lat="48.74588" lon="7.19015">
        <ele>344</ele>
        <time>2023-09-16T12:58:04Z</time>
      </trkpt>
      <trkpt lat="48.746" lon="7.19036">
        <ele>343.9</ele>
        <time>2023-09-16T12:58:10Z</time>
      </trkpt>
      <trkpt lat="48.74614" lon="7.19057">
        <ele>344</ele>
        <time>2023-09-16T12:58:16Z</time>
      </trkpt>
      <trkpt lat="48.74624" lon="7.19083">
        <ele>343</ele>
        <time>2023-09-16T12:58:22Z</time>
      </trkpt>
      <trkpt lat="48.74631" lon="7.19104">
        <ele>339.7</ele>
        <time>2023-09-16T12:58:28Z</time>
      </trkpt>
      <trkpt lat="48.74651" lon="7.19105">
        <ele>338.1</ele>
        <time>2023-09-16T12:58:36Z</time>
      </trkpt>
      <trkpt lat="48.74669" lon="7.19107">
        <ele>335.8</ele>
        <time>2023-09-16T12:58:43Z</time>
      </trkpt>
      <trkpt lat="48.74686" lon="7.19118">
        <ele>333.4</ele>
        <time>2023-09-16T12:58:51Z</time>
      </trkpt>
      <trkpt lat="48.74688" lon="7.19123">
        <ele>332.6</ele>
        <time>2023-09-16T12:58:55Z</time>
      </trkpt>
      <trkpt lat="48.74702" lon="7.19105">
        <ele>334.6</ele>
        <time>2023-09-16T12:59:03Z</time>
      </trkpt>
      <trkpt lat="48.74721" lon="7.19102">
        <ele>333.5</ele>
        <time>2023-09-16T12:59:11Z</time>
      </trkpt>
      <trkpt lat="48.74741" lon="7.19106">
        <ele>332.3</ele>
        <time>2023-09-16T12:59:18Z</time>
      </trkpt>
      <trkpt lat="48.74759" lon="7.19099">
        <ele>332.1</ele>
        <time>2023-09-16T12:59:24Z</time>
      </trkpt>
      <trkpt lat="48.74776" lon="7.19089">
        <ele>332.3</ele>
        <time>2023-09-16T12:59:30Z</time>
      </trkpt>
      <trkpt lat="48.74791" lon="7.19075">
        <ele>332.4</ele>
        <time>2023-09-16T12:59:36Z</time>
      </trkpt>
      <trkpt lat="48.74802" lon="7.19075">
        <ele>332.2</ele>
        <time>2023-09-16T12:59:42Z</time>
      </trkpt>
    </trkseg>
  </trk>
</gpx>